Time;durP1;ratioP1;P1;durP2;ratioP2;P2;SDS_P1;SDS_P2;PMS_P1;PMS_P2;Temp;Humidity;BMP_temperature;BMP_pressure;BME280_temperature;BME280_humidity;BME280_pressure;Samples;Min_cycle;Max_cycle;Signal;HPM_P1;HPM_P2
2023/08/04 00:01:58;;;;;;;;;;;;;;;24.12;50.44;100401.53;5024263;28;19917;-83
2023/08/04 00:04:23;;;;;;;;;;;;;;;24.10;50.54;100404.63;5028064;28;19982;-83
2023/08/04 00:06:48;;;;;;;;;;;;;;;24.05;50.71;100407.59;5024403;28;19947;-83
2023/08/04 00:09:14;;;;;;;;;;;;;;;24.06;50.82;100402.94;5024253;28;19925;-83
2023/08/04 00:11:39;;;;;;;;;;;;;;;24.07;50.93;100404.53;5022679;28;19917;-83
2023/08/04 00:14:04;;;;;;;;;;;;;;;24.13;50.80;100407.81;5022063;28;19937;-83
2023/08/04 00:16:29;;;;;;;;;;;;;;;24.17;50.79;100406.75;5024997;28;19920;-83
2023/08/04 00:18:55;;;;;;;;;;;;;;;24.19;50.66;100401.75;5016006;28;19921;-83
2023/08/04 00:21:20;;;;;;;;;;;;;;;24.24;50.62;100395.25;5033345;28;19917;-83
2023/08/04 00:23:45;;;;;;;;;;;;;;;24.27;50.58;100400.81;5031471;28;19936;-83
2023/08/04 00:26:11;;;;;;;;;;;;;;;24.25;50.44;100405.84;5030633;28;20395;-84
2023/08/04 00:28:36;;;;;;;;;;;;;;;24.26;50.42;100410.16;5034661;28;19917;-83
2023/08/04 00:31:01;;;;;;;;;;;;;;;24.25;50.50;100413.25;5031550;28;20011;-83
2023/08/04 00:33:27;;;;;;;;;;;;;;;24.25;50.63;100419.53;5029280;28;19939;-84
2023/08/04 00:35:52;;;;;;;;;;;;;;;24.24;50.31;100425.34;5006144;28;20355;-83
2023/08/04 00:38:17;;;;;;;;;;;;;;;24.21;50.52;100432.28;5033920;28;20385;-83
2023/08/04 00:40:42;;;;;;;;;;;;;;;24.15;50.74;100421.94;5013726;28;19918;-83
2023/08/04 00:43:08;;;;;;;;;;;;;;;24.15;50.82;100422.75;5026169;28;19921;-83
2023/08/04 00:45:34;;;;;;;;;;;;;;;24.17;50.59;100436.06;5031988;28;19952;-83
2023/08/04 00:48:00;;;;;;;;;;;;;;;24.18;50.78;100443.94;5032591;28;19928;-83
2023/08/04 00:50:26;;;;;;;;;;;;;;;24.19;50.53;100436.53;5027193;28;19922;-83
2023/08/04 00:52:51;;;;;;;;;;;;;;;24.21;50.64;100445.19;5033099;28;19939;-83
2023/08/04 00:55:17;;;;;;;;;;;;;;;24.20;50.68;100444.38;5029043;28;20361;-83
2023/08/04 00:57:43;;;;;;;;;;;;;;;24.23;50.65;100442.91;5029500;28;19996;-83
2023/08/04 01:00:08;;;;;;;;;;;;;;;24.22;50.53;100444.03;5028950;28;20280;-83
2023/08/04 01:02:34;;;;;;;;;;;;;;;24.20;50.65;100447.13;5030308;28;19923;-84
2023/08/04 01:05:00;;;;;;;;;;;;;;;24.22;50.58;100450.31;5031631;28;19956;-83
2023/08/04 01:07:27;;;;;;;;;;;;;;;24.25;50.60;100459.78;5024405;28;19920;-83
2023/08/04 01:10:04;;;;;;;;;;;;;;;24.25;50.49;100462.53;5021111;28;19921;-83
2023/08/04 01:12:34;;;;;;;;;;;;;;;24.23;50.63;100468.31;5031298;28;20104;-83
2023/08/04 01:15:01;;;;;;;;;;;;;;;24.24;50.67;100472.69;5029245;28;19932;-83
2023/08/04 01:17:27;;;;;;;;;;;;;;;24.23;50.62;100473.81;5028163;28;20514;-83
2023/08/04 01:19:53;;;;;;;;;;;;;;;24.24;50.57;100469.94;5029041;28;19918;-83
2023/08/04 01:22:20;;;;;;;;;;;;;;;24.24;50.82;100478.16;5029139;28;19971;-83
2023/08/04 01:24:45;;;;;;;;;;;;;;;24.30;50.72;100479.53;5027573;28;19952;-83
2023/08/04 01:27:12;;;;;;;;;;;;;;;24.34;50.69;100472.22;5029277;28;20475;-83
2023/08/04 01:29:38;;;;;;;;;;;;;;;24.37;50.48;100471.50;5021715;28;19960;-83
2023/08/04 01:32:03;;;;;;;;;;;;;;;24.38;50.61;100466.84;5021768;28;19999;-83
2023/08/04 01:34:29;;;;;;;;;;;;;;;24.38;50.54;100470.38;5025914;28;20150;-83
2023/08/04 01:36:55;;;;;;;;;;;;;;;24.41;50.52;100469.66;5026881;28;19996;-83
2023/08/04 01:39:20;;;;;;;;;;;;;;;24.45;50.58;100469.00;5028801;28;19925;-83
2023/08/04 01:41:45;;;;;;;;;;;;;;;24.50;50.64;100471.47;5026230;28;20055;-83
2023/08/04 01:44:10;;;;;;;;;;;;;;;24.56;50.40;100464.59;5007760;28;19928;-83
2023/08/04 01:46:36;;;;;;;;;;;;;;;24.57;50.36;100471.66;5022807;28;19918;-83
2023/08/04 01:49:01;;;;;;;;;;;;;;;24.56;50.32;100475.56;5022878;28;19924;-83
2023/08/04 01:51:26;;;;;;;;;;;;;;;24.56;50.20;100473.59;5027625;28;20317;-83
2023/08/04 01:53:52;;;;;;;;;;;;;;;24.54;50.35;100475.09;5021163;28;19921;-83
2023/08/04 01:56:17;;;;;;;;;;;;;;;24.52;50.40;100474.66;5025522;28;20373;-83
2023/08/04 01:58:42;;;;;;;;;;;;;;;24.51;50.44;100473.06;5021708;28;19975;-83
2023/08/04 02:01:07;;;;;;;;;;;;;;;24.49;50.59;100475.38;5028883;28;19996;-83
2023/08/04 02:03:34;;;;;;;;;;;;;;;24.52;50.50;100480.13;5009379;28;20290;-83
2023/08/04 02:06:00;;;;;;;;;;;;;;;24.55;50.54;100490.41;5029599;28;19932;-83
2023/08/04 02:08:25;;;;;;;;;;;;;;;24.53;50.51;100492.69;5023212;28;19925;-83
2023/08/04 02:10:50;;;;;;;;;;;;;;;24.52;50.33;100488.34;5026276;28;20007;-83
2023/08/04 02:13:16;;;;;;;;;;;;;;;24.47;50.45;100494.88;5032113;28;19924;-83
2023/08/04 02:15:41;;;;;;;;;;;;;;;24.43;50.44;100504.94;5008398;28;19924;-83
2023/08/04 02:18:06;;;;;;;;;;;;;;;24.41;50.51;100518.97;5029473;28;19928;-83
2023/08/04 02:20:31;;;;;;;;;;;;;;;24.37;50.66;100522.75;5012239;28;20384;-83
2023/08/04 02:22:57;;;;;;;;;;;;;;;24.36;50.53;100535.63;5026109;28;19971;-83
2023/08/04 02:25:22;;;;;;;;;;;;;;;24.33;50.52;100541.81;5026477;28;19964;-83
2023/08/04 02:27:47;;;;;;;;;;;;;;;24.30;50.64;100550.72;5027535;28;19960;-83
2023/08/04 02:30:13;;;;;;;;;;;;;;;24.29;50.61;100559.28;5007753;28;19932;-82
2023/08/04 02:32:38;;;;;;;;;;;;;;;24.26;50.60;100563.47;5026057;28;20403;-83
2023/08/04 02:35:04;;;;;;;;;;;;;;;24.15;50.83;100567.81;5026812;28;19929;-83
2023/08/04 02:37:29;;;;;;;;;;;;;;;24.13;50.98;100574.78;5025656;28;19980;-83
2023/08/04 02:39:55;;;;;;;;;;;;;;;24.13;50.94;100572.03;5026119;28;20449;-83
2023/08/04 02:42:20;;;;;;;;;;;;;;;24.14;51.12;100573.63;5022401;28;19928;-83
2023/08/04 02:44:45;;;;;;;;;;;;;;;24.11;50.96;100578.66;5024596;28;19932;-83
2023/08/04 02:47:11;;;;;;;;;;;;;;;24.10;50.94;100581.75;5023963;28;20008;-83
2023/08/04 02:49:36;;;;;;;;;;;;;;;24.08;51.14;100570.34;5024417;28;20004;-82
2023/08/04 02:52:03;;;;;;;;;;;;;;;24.13;51.05;100583.78;5026143;28;19917;-83
2023/08/04 02:54:28;;;;;;;;;;;;;;;24.09;51.21;100580.16;5025958;28;20012;-83
2023/08/04 02:56:53;;;;;;;;;;;;;;;24.04;51.46;100586.63;5027991;28;20349;-83
2023/08/04 02:59:19;;;;;;;;;;;;;;;24.07;51.47;100590.63;5025280;28;19917;-83
2023/08/04 03:01:44;;;;;;;;;;;;;;;24.09;51.41;100593.81;5026367;28;19917;-82
2023/08/04 03:04:12;;;;;;;;;;;;;;;24.10;51.13;100598.16;5022769;28;20273;-82
2023/08/04 03:06:38;;;;;;;;;;;;;;;24.08;51.46;100600.44;5029285;28;20426;-82
2023/08/04 03:09:03;;;;;;;;;;;;;;;24.10;51.37;100600.91;5024510;28;19917;-82
2023/08/04 03:11:28;;;;;;;;;;;;;;;24.11;51.37;100597.03;5026462;28;19923;-82
2023/08/04 03:13:53;;;;;;;;;;;;;;;24.09;51.37;100594.63;5023319;28;19921;-82
2023/08/04 03:16:19;;;;;;;;;;;;;;;24.09;51.45;100597.38;5021540;28;19917;-83
2023/08/04 03:18:44;;;;;;;;;;;;;;;24.14;51.51;100596.31;5022134;28;20015;-82
2023/08/04 03:21:10;;;;;;;;;;;;;;;24.14;51.42;100601.81;5023422;28;20008;-82
2023/08/04 03:23:35;;;;;;;;;;;;;;;24.16;51.54;100596.78;5023947;28;19925;-81
2023/08/04 03:26:00;;;;;;;;;;;;;;;24.16;51.66;100593.25;5025496;28;20003;-82
2023/08/04 03:28:26;;;;;;;;;;;;;;;24.20;51.58;100597.69;5027024;28;20369;-82
2023/08/04 03:30:51;;;;;;;;;;;;;;;24.25;51.47;100594.72;5029257;28;20284;-82
2023/08/04 03:33:16;;;;;;;;;;;;;;;24.30;51.43;100597.25;5021303;28;19921;-83
2023/08/04 03:35:41;;;;;;;;;;;;;;;24.31;51.38;100596.13;5027720;28;19921;-84
2023/08/04 03:38:07;;;;;;;;;;;;;;;24.29;51.28;100592.94;5014479;28;19917;-84
2023/08/04 03:40:32;;;;;;;;;;;;;;;24.29;51.55;100589.41;4996212;28;19924;-83
2023/08/04 03:42:57;;;;;;;;;;;;;;;24.31;51.47;100589.84;5008350;28;19917;-83
2023/08/04 03:45:23;;;;;;;;;;;;;;;24.27;51.59;100589.72;5021792;28;19928;-83
2023/08/04 03:47:48;;;;;;;;;;;;;;;24.29;51.78;100583.91;5022503;28;19932;-83
2023/08/04 03:50:13;;;;;;;;;;;;;;;24.31;51.59;100585.16;5024056;28;19928;-83
2023/08/04 03:52:39;;;;;;;;;;;;;;;24.29;51.64;100584.72;5025233;28;19917;-83
2023/08/04 03:55:07;;;;;;;;;;;;;;;24.28;51.70;100588.56;5022962;28;20411;-83
2023/08/04 03:57:32;;;;;;;;;;;;;;;24.29;51.58;100586.66;5022243;28;19924;-83
2023/08/04 03:59:58;;;;;;;;;;;;;;;24.29;51.79;100592.13;5027652;28;20395;-83
2023/08/04 04:02:23;;;;;;;;;;;;;;;24.31;51.79;100600.78;5023684;28;20071;-83
2023/08/04 04:04:48;;;;;;;;;;;;;;;24.36;51.59;100608.75;5010775;28;19921;-83
2023/08/04 04:07:14;;;;;;;;;;;;;;;24.38;51.64;100612.75;5026618;28;19928;-83
2023/08/04 04:09:39;;;;;;;;;;;;;;;24.38;51.52;100620.97;5025400;28;19924;-83
2023/08/04 04:12:05;;;;;;;;;;;;;;;24.37;51.72;100622.09;5018493;28;20310;-83
2023/08/04 04:14:30;;;;;;;;;;;;;;;24.38;51.72;100626.44;5022360;28;19921;-83
2023/08/04 04:16:55;;;;;;;;;;;;;;;24.43;51.66;100632.84;5024466;28;20384;-83
2023/08/04 04:19:21;;;;;;;;;;;;;;;24.39;51.50;100636.25;5027936;28;19917;-83
2023/08/04 04:21:46;;;;;;;;;;;;;;;24.34;51.50;100635.69;5019743;28;19990;-83
2023/08/04 04:24:12;;;;;;;;;;;;;;;24.29;51.62;100647.69;5023754;28;20173;-83
2023/08/04 04:26:37;;;;;;;;;;;;;;;24.25;51.66;100641.28;5020766;28;19960;-83
2023/08/04 04:29:02;;;;;;;;;;;;;;;24.22;51.76;100650.16;5024795;28;20008;-83
2023/08/04 04:31:27;;;;;;;;;;;;;;;24.22;52.00;100644.66;5008874;28;20339;-83
2023/08/04 04:33:53;;;;;;;;;;;;;;;24.24;51.88;100642.41;5023885;28;19925;-83
2023/08/04 04:36:18;;;;;;;;;;;;;;;24.27;51.98;100640.94;5028295;28;19917;-84
2023/08/04 04:38:43;;;;;;;;;;;;;;;24.31;51.84;100639.94;5019720;28;19917;-83
2023/08/04 04:41:09;;;;;;;;;;;;;;;24.31;52.01;100645.41;5024113;28;19945;-83
2023/08/04 04:43:34;;;;;;;;;;;;;;;24.37;52.02;100652.22;5027147;28;20410;-84
2023/08/04 04:45:59;;;;;;;;;;;;;;;24.44;51.83;100656.34;5024504;28;20287;-83
2023/08/04 04:48:25;;;;;;;;;;;;;;;24.40;51.78;100658.97;5025117;28;19967;-83
2023/08/04 04:50:51;;;;;;;;;;;;;;;24.36;51.78;100669.81;5007951;28;20016;-83
2023/08/04 04:53:16;;;;;;;;;;;;;;;24.33;51.84;100667.75;5018810;28;20337;-84
2023/08/04 04:55:41;;;;;;;;;;;;;;;24.32;51.86;100673.56;5025571;28;19972;-83
2023/08/04 04:58:07;;;;;;;;;;;;;;;24.34;51.67;100674.03;5020604;28;19921;-83
2023/08/04 05:00:33;;;;;;;;;;;;;;;24.28;51.80;100681.66;5007177;28;19924;-83
2023/08/04 05:02:59;;;;;;;;;;;;;;;24.29;51.88;100688.75;5022972;28;20156;-83
2023/08/04 05:05:24;;;;;;;;;;;;;;;24.29;51.92;100685.22;5028937;28;20404;-84
2023/08/04 05:07:49;;;;;;;;;;;;;;;24.32;52.12;100685.31;5030401;28;20092;-84
2023/08/04 05:10:15;;;;;;;;;;;;;;;24.34;51.76;100688.53;5024207;28;20055;-83
2023/08/04 05:12:40;;;;;;;;;;;;;;;24.33;51.92;100695.13;5031090;28;19925;-83
2023/08/04 05:15:06;;;;;;;;;;;;;;;24.38;52.01;100702.31;5013985;28;19939;-83
2023/08/04 05:17:31;;;;;;;;;;;;;;;24.41;51.71;100709.84;5031280;28;20391;-83
2023/08/04 05:19:56;;;;;;;;;;;;;;;24.39;51.83;100710.19;5031538;28;20308;-83
2023/08/04 05:22:21;;;;;;;;;;;;;;;24.37;51.85;100723.44;5029412;28;19924;-84
2023/08/04 05:24:47;;;;;;;;;;;;;;;24.37;51.87;100720.69;5025724;28;20015;-83
2023/08/04 05:27:12;;;;;;;;;;;;;;;24.40;52.04;100717.25;5025373;28;19928;-84
2023/08/04 05:29:37;;;;;;;;;;;;;;;24.45;51.94;100720.94;5025900;28;20239;-84
2023/08/04 05:32:03;;;;;;;;;;;;;;;24.47;51.75;100729.59;5027317;28;20369;-85
2023/08/04 05:34:28;;;;;;;;;;;;;;;24.47;51.71;100724.94;5029677;28;19921;-85
2023/08/04 05:36:53;;;;;;;;;;;;;;;24.51;51.64;100733.25;5021862;28;19917;-83
2023/08/04 05:39:19;;;;;;;;;;;;;;;24.54;51.59;100747.06;5027894;28;19917;-84
2023/08/04 05:41:45;;;;;;;;;;;;;;;24.57;51.80;100751.84;5027103;28;19917;-84
2023/08/04 05:44:12;;;;;;;;;;;;;;;24.64;51.68;100751.28;5026932;28;20201;-85
2023/08/04 05:46:37;;;;;;;;;;;;;;;24.66;51.31;100762.72;5025279;28;20719;-85
2023/08/04 05:49:03;;;;;;;;;;;;;;;24.63;51.29;100760.66;5027400;28;19920;-85
2023/08/04 05:51:28;;;;;;;;;;;;;;;24.59;51.44;100756.97;5028304;28;19921;-84
2023/08/04 05:53:54;;;;;;;;;;;;;;;24.62;51.37;100762.59;5029075;28;19975;-85
2023/08/04 05:56:19;;;;;;;;;;;;;;;24.59;51.31;100766.00;5028060;28;20384;-85
2023/08/04 05:58:44;;;;;;;;;;;;;;;24.62;51.37;100764.53;5007127;28;19925;-85
2023/08/04 06:01:10;;;;;;;;;;;;;;;24.62;51.08;100764.53;5030511;28;19923;-85
2023/08/04 06:03:35;;;;;;;;;;;;;;;24.58;51.32;100764.41;5022943;28;19932;-85
2023/08/04 06:06:00;;;;;;;;;;;;;;;24.60;51.41;100762.16;5020844;28;19921;-86
2023/08/04 06:08:25;;;;;;;;;;;;;;;24.63;51.09;100766.13;5024540;28;20177;-87
2023/08/04 06:10:51;;;;;;;;;;;;;;;24.61;51.29;100762.94;5019932;28;19955;-85
2023/08/04 06:13:16;;;;;;;;;;;;;;;24.66;51.20;100770.94;5022210;28;19918;-84
2023/08/04 06:15:41;;;;;;;;;;;;;;;24.65;51.02;100772.06;5026473;28;19921;-84
2023/08/04 06:18:07;;;;;;;;;;;;;;;24.62;51.49;100779.03;5024721;28;19917;-83
2023/08/04 06:20:33;;;;;;;;;;;;;;;24.70;51.14;100780.06;5027792;28;19995;-85
2023/08/04 06:22:58;;;;;;;;;;;;;;;24.74;51.03;100786.44;5025206;28;19918;-85
2023/08/04 06:25:23;;;;;;;;;;;;;;;24.76;51.02;100789.63;5017115;28;19921;-85
2023/08/04 06:27:53;;;;;;;;;;;;;;;24.81;50.97;100788.63;5020641;28;20011;-85
2023/08/04 06:30:18;;;;;;;;;;;;;;;24.87;50.78;100795.47;5019406;28;19921;-85
2023/08/04 06:32:43;;;;;;;;;;;;;;;24.88;50.68;100800.59;5024574;28;19987;-84
2023/08/04 06:35:09;;;;;;;;;;;;;;;24.95;50.47;100795.31;5027256;28;19925;-85
2023/08/04 06:37:34;;;;;;;;;;;;;;;24.90;50.51;100809.28;5027601;28;19917;-85
2023/08/04 06:40:00;;;;;;;;;;;;;;;24.95;50.63;100817.25;5018725;28;19952;-85
2023/08/04 06:42:25;;;;;;;;;;;;;;;25.00;50.48;100822.56;5021115;28;20297;-85
2023/08/04 06:44:50;;;;;;;;;;;;;;;25.06;50.24;100828.59;5021188;28;19924;-85
2023/08/04 06:47:16;;;;;;;;;;;;;;;25.15;50.35;100825.75;5026280;28;19921;-85
2023/08/04 06:49:42;;;;;;;;;;;;;;;25.21;49.78;100825.16;5017857;28;19917;-85
2023/08/04 06:52:08;;;;;;;;;;;;;;;25.23;49.87;100827.56;5023607;28;20095;-86
2023/08/04 06:54:33;;;;;;;;;;;;;;;25.22;49.78;100836.94;5023005;28;19932;-86
2023/08/04 06:56:58;;;;;;;;;;;;;;;25.19;49.78;100832.13;5020705;28;19917;-86
2023/08/04 06:59:24;;;;;;;;;;;;;;;25.22;49.80;100845.16;5026397;28;20355;-85
2023/08/04 07:01:49;;;;;;;;;;;;;;;25.25;49.66;100856.22;5018779;28;19956;-85
2023/08/04 07:04:14;;;;;;;;;;;;;;;25.20;49.42;100858.41;5020587;28;19917;-86
2023/08/04 07:06:40;;;;;;;;;;;;;;;25.19;49.44;100865.03;5025456;28;19922;-85
2023/08/04 07:09:05;;;;;;;;;;;;;;;25.14;49.57;100862.53;5027696;28;19924;-85
2023/08/04 07:11:30;;;;;;;;;;;;;;;25.15;49.47;100864.13;5026519;28;20351;-84
2023/08/04 07:13:56;;;;;;;;;;;;;;;25.14;49.55;100873.50;5027227;28;19921;-85
2023/08/04 07:16:21;;;;;;;;;;;;;;;25.12;49.33;100867.53;5024717;28;19924;-85
2023/08/04 07:18:47;;;;;;;;;;;;;;;25.11;49.42;100876.91;5025115;28;19957;-85
2023/08/04 07:21:13;;;;;;;;;;;;;;;25.11;49.44;100874.16;5024754;28;19921;-85
2023/08/04 07:23:39;;;;;;;;;;;;;;;25.12;49.41;100878.50;5024486;28;19925;-85
2023/08/04 07:26:04;;;;;;;;;;;;;;;25.16;49.47;100879.44;5010738;28;19920;-85
2023/08/04 07:28:30;;;;;;;;;;;;;;;25.19;49.39;100896.00;5024088;28;20415;-84
2023/08/04 07:30:56;;;;;;;;;;;;;;;25.24;49.26;100893.03;5023725;28;20451;-85
2023/08/04 07:33:22;;;;;;;;;;;;;;;25.22;49.09;100898.06;5025787;28;19928;-85
2023/08/04 07:35:53;;;;;;;;;;;;;;;25.20;49.28;100894.06;5026714;28;19929;-85
2023/08/04 07:38:20;;;;;;;;;;;;;;;25.25;49.33;100894.63;5020571;28;20008;-84
2023/08/04 07:40:45;;;;;;;;;;;;;;;25.34;49.40;100899.22;5027628;28;19917;-85
2023/08/04 07:43:11;;;;;;;;;;;;;;;25.43;49.21;100903.41;5028270;28;19986;-85
2023/08/04 07:45:37;;;;;;;;;;;;;;;25.54;49.10;100892.78;5028342;28;19921;-85
2023/08/04 07:48:02;;;;;;;;;;;;;;;25.58;48.83;100893.69;5026377;28;19932;-85
2023/08/04 07:50:28;;;;;;;;;;;;;;;25.68;48.85;100904.22;5026600;28;20345;-86
2023/08/04 07:52:54;;;;;;;;;;;;;;;25.76;48.74;100911.50;5008234;28;19969;-85
2023/08/04 07:55:19;;;;;;;;;;;;;;;25.82;48.65;100909.31;5027298;28;20298;-85
2023/08/04 07:57:44;;;;;;;;;;;;;;;25.87;48.55;100917.31;5023542;28;19917;-85
2023/08/04 08:00:10;;;;;;;;;;;;;;;25.89;48.26;100917.78;5024801;28;19917;-85
2023/08/04 08:02:35;;;;;;;;;;;;;;;25.85;48.05;100925.91;5025198;28;19968;-86
2023/08/04 08:05:01;;;;;;;;;;;;;;;25.80;48.19;100922.59;5020852;28;20407;-86
2023/08/04 08:07:26;;;;;;;;;;;;;;;25.85;48.36;100936.88;5020976;28;20474;-85
2023/08/04 08:09:51;;;;;;;;;;;;;;;25.85;48.15;100936.06;5016795;28;19917;-85
2023/08/04 08:12:17;;;;;;;;;;;;;;;25.83;48.20;100947.38;5005248;28;19925;-85
2023/08/04 08:14:42;;;;;;;;;;;;;;;25.81;48.22;100948.88;5022077;28;19925;-84
2023/08/04 08:17:07;;;;;;;;;;;;;;;25.69;47.61;100946.19;5023325;28;19924;-84
2023/08/04 08:19:32;;;;;;;;;;;;;;;25.75;47.99;100958.50;5028500;28;19963;-85
2023/08/04 08:21:58;;;;;;;;;;;;;;;25.71;47.99;100958.41;5026910;28;19917;-84
2023/08/04 08:24:23;;;;;;;;;;;;;;;25.79;47.76;100962.16;5027425;28;20301;-84
2023/08/04 08:26:49;;;;;;;;;;;;;;;25.86;47.54;100965.13;5025725;28;19925;-85
2023/08/04 08:29:14;;;;;;;;;;;;;;;25.90;46.95;100966.03;5022354;28;20258;-86
2023/08/04 08:31:40;;;;;;;;;;;;;;;26.05;47.47;100968.06;5020629;28;20274;-85
2023/08/04 08:34:05;;;;;;;;;;;;;;;26.18;47.06;100980.59;5021154;28;19929;-85
2023/08/04 08:36:30;;;;;;;;;;;;;;;26.25;46.88;100979.22;5022857;28;19924;-84
2023/08/04 08:38:56;;;;;;;;;;;;;;;26.40;46.19;100986.75;5024252;28;19925;-85
2023/08/04 08:41:22;;;;;;;;;;;;;;;26.50;45.65;100989.00;5027000;28;19924;-85
2023/08/04 08:43:48;;;;;;;;;;;;;;;26.65;46.05;100995.69;5027004;28;20007;-84
2023/08/04 08:46:14;;;;;;;;;;;;;;;26.57;44.56;100991.13;5024745;28;20031;-84
2023/08/04 08:48:42;;;;;;;;;;;;;;;26.60;45.46;100990.44;5025211;28;20333;-84
2023/08/04 08:51:11;;;;;;;;;;;;;;;26.64;44.71;100994.09;5026547;28;19917;-83
2023/08/04 08:53:38;;;;;;;;;;;;;;;26.77;44.82;100990.13;5030998;28;19925;-84
2023/08/04 08:56:04;;;;;;;;;;;;;;;26.94;44.55;100991.75;5024436;28;19925;-83
2023/08/04 08:58:30;;;;;;;;;;;;;;;27.10;44.89;101003.59;5009601;28;19921;-83
2023/08/04 09:00:55;;;;;;;;;;;;;;;27.15;45.05;101006.09;5022846;28;19925;-84
2023/08/04 09:03:21;;;;;;;;;;;;;;;27.21;44.42;101004.66;5012563;28;19917;-84
2023/08/04 09:05:46;;;;;;;;;;;;;;;27.24;44.43;101014.97;5021725;28;21811;-83
2023/08/04 09:08:12;;;;;;;;;;;;;;;27.28;43.99;101017.78;5027627;28;20312;-84
2023/08/04 09:10:38;;;;;;;;;;;;;;;27.24;43.10;101014.16;5029156;28;19917;-83
2023/08/04 09:13:07;;;;;;;;;;;;;;;27.34;44.43;101011.69;5024574;28;20227;-83
2023/08/04 09:15:33;;;;;;;;;;;;;;;27.53;44.22;101012.94;5024895;28;20072;-82
2023/08/04 09:17:59;;;;;;;;;;;;;;;27.71;44.04;101018.88;5022648;28;19921;-83
2023/08/04 09:20:28;;;;;;;;;;;;;;;27.84;43.49;101015.66;5028654;28;19963;-84
2023/08/04 09:22:53;;;;;;;;;;;;;;;27.78;41.36;101025.34;5026808;28;19921;-82
2023/08/04 09:25:18;;;;;;;;;;;;;;;27.79;43.17;101021.44;5026759;28;19928;-83
2023/08/04 09:27:49;;;;;;;;;;;;;;;27.83;43.09;101027.84;5031282;28;19917;-83
2023/08/04 09:30:15;;;;;;;;;;;;;;;27.84;42.75;101023.13;5012630;28;20831;-83
2023/08/04 09:32:44;;;;;;;;;;;;;;;27.89;43.21;101020.09;5025838;28;19921;-82
2023/08/04 09:35:09;;;;;;;;;;;;;;;27.93;42.41;101026.47;5031486;28;19968;-83
2023/08/04 09:37:35;;;;;;;;;;;;;;;28.00;41.88;101029.38;5029000;28;19917;-83
2023/08/04 09:40:04;;;;;;;;;;;;;;;28.13;42.70;101028.09;5022658;28;20270;-83
2023/08/04 09:42:36;;;;;;;;;;;;;;;28.24;42.02;101031.91;5024656;28;20004;-82
2023/08/04 09:45:01;;;;;;;;;;;;;;;28.31;42.23;101042.28;5017042;28;19917;-82
2023/08/04 09:47:27;;;;;;;;;;;;;;;28.33;42.01;101050.19;5029739;28;19917;-83
2023/08/04 09:49:53;;;;;;;;;;;;;;;28.40;41.90;101047.63;4996974;28;19917;-83
2023/08/04 09:52:22;;;;;;;;;;;;;;;28.41;41.96;101050.00;5020472;28;20386;-83
2023/08/04 09:54:48;;;;;;;;;;;;;;;28.45;41.74;101053.63;5020782;28;19921;-83
2023/08/04 09:57:16;;;;;;;;;;;;;;;28.70;41.98;101047.81;5019353;28;19924;-83
2023/08/04 09:59:41;;;;;;;;;;;;;;;28.85;40.29;101044.19;5026015;28;19918;-82
2023/08/04 10:02:08;;;;;;;;;;;;;;;29.07;40.63;101046.19;5023266;28;20399;-83
2023/08/04 10:04:33;;;;;;;;;;;;;;;29.12;40.69;101048.66;5009279;28;19948;-83
2023/08/04 10:06:59;;;;;;;;;;;;;;;29.02;40.05;101049.25;5015019;28;19933;-82
2023/08/04 10:09:26;;;;;;;;;;;;;;;28.92;40.38;101047.13;5006418;28;19983;-82
2023/08/04 10:11:51;;;;;;;;;;;;;;;28.80;40.57;101050.00;5017843;28;19921;-83
2023/08/04 10:14:16;;;;;;;;;;;;;;;28.75;40.72;101058.56;5021426;28;19925;-83
2023/08/04 10:16:44;;;;;;;;;;;;;;;28.74;40.12;101056.97;5023302;28;19918;-83
2023/08/04 10:19:11;;;;;;;;;;;;;;;28.82;40.43;101039.41;5026214;28;19925;-83
2023/08/04 10:21:40;;;;;;;;;;;;;;;29.03;40.34;101039.81;5019619;28;19925;-84
2023/08/04 10:24:07;;;;;;;;;;;;;;;29.19;39.92;101040.50;5024669;28;20544;-84
2023/08/04 10:26:33;;;;;;;;;;;;;;;29.21;39.22;101039.34;5023347;28;19917;-84
2023/08/04 10:29:04;;;;;;;;;;;;;;;29.29;39.44;101046.59;5022734;28;20373;-84
2023/08/04 10:31:43;;;;;;;;;;;;;;;29.50;39.39;101035.94;5023349;28;20381;-84
2023/08/04 10:34:21;;;;;;;;;;;;;;;29.80;38.96;101041.53;5026503;28;19933;-83
2023/08/04 10:37:12;;;;;;;;;;;;;;;29.93;38.57;101053.97;5026312;28;20558;-83
2023/08/04 10:39:39;;;;;;;;;;;;;;;30.00;38.02;101056.03;5021509;28;20181;-85
2023/08/04 10:42:06;;;;;;;;;;;;;;;30.21;36.86;101056.38;5023624;28;20040;-83
2023/08/04 10:44:49;;;;;;;;;;;;;;;30.30;37.54;101047.78;4997247;28;19928;-83
2023/08/04 10:47:15;;;;;;;;;;;;;;;30.45;37.69;101062.59;5018116;28;20003;-83
2023/08/04 10:49:41;;;;;;;;;;;;;;;30.63;37.23;101063.63;5003601;28;20362;-82
2023/08/04 10:52:06;;;;;;;;;;;;;;;30.64;36.56;101065.22;5023121;28;19940;-85
2023/08/04 10:54:32;;;;;;;;;;;;;;;30.60;36.44;101059.63;5023637;28;19917;-85
2023/08/04 10:56:57;;;;;;;;;;;;;;;30.53;36.46;101064.28;5022957;28;20359;-84
2023/08/04 10:59:22;;;;;;;;;;;;;;;30.47;36.63;101071.31;5019471;28;19913;-84
2023/08/04 11:01:48;;;;;;;;;;;;;;;30.51;36.71;101067.41;5021034;28;19920;-84
2023/08/04 11:04:14;;;;;;;;;;;;;;;30.62;36.23;101070.34;5019528;28;19972;-84
2023/08/04 11:06:40;;;;;;;;;;;;;;;30.69;33.85;101070.41;5018586;28;20373;-83
2023/08/04 11:09:05;;;;;;;;;;;;;;;30.70;36.06;101074.78;5018270;28;19924;-83
2023/08/04 11:11:31;;;;;;;;;;;;;;;30.83;35.89;101070.59;5024685;28;19948;-83
2023/08/04 11:13:57;;;;;;;;;;;;;;;30.90;36.02;101070.69;5023257;28;20471;-83
2023/08/04 11:16:23;;;;;;;;;;;;;;;30.84;36.11;101066.66;5027247;28;19921;-84
2023/08/04 11:18:48;;;;;;;;;;;;;;;30.72;35.90;101066.94;5029226;28;19925;-84
2023/08/04 11:21:14;;;;;;;;;;;;;;;30.65;35.28;101075.13;5022798;28;20320;-84
2023/08/04 11:23:39;;;;;;;;;;;;;;;30.42;35.39;101075.22;5020049;28;20270;-84
2023/08/04 11:26:07;;;;;;;;;;;;;;;30.27;36.00;101071.44;5021564;28;19978;-84
2023/08/04 11:28:34;;;;;;;;;;;;;;;30.29;35.95;101068.31;5021043;28;19927;-85
2023/08/04 11:31:06;;;;;;;;;;;;;;;30.38;35.38;101055.81;5014179;28;19921;-81
2023/08/04 11:33:32;;;;;;;;;;;;;;;30.38;35.85;101060.53;5023292;28;19927;-81
2023/08/04 11:35:57;;;;;;;;;;;;;;;30.34;35.68;101062.44;5022898;28;19925;-81
2023/08/04 11:38:22;;;;;;;;;;;;;;;30.24;32.88;101054.81;5019842;28;19928;-82
2023/08/04 11:40:55;;;;;;;;;;;;;;;30.23;35.73;101056.78;5022984;28;19928;-81
2023/08/04 11:43:21;;;;;;;;;;;;;;;30.28;35.77;101044.59;5024931;28;19917;-81
2023/08/04 11:45:47;;;;;;;;;;;;;;;30.41;34.46;101047.94;5019543;28;19983;-82
2023/08/04 11:48:12;;;;;;;;;;;;;;;30.60;34.85;101042.25;5020315;28;21412;-82
2023/08/04 11:50:37;;;;;;;;;;;;;;;30.64;34.73;101048.63;5024303;28;19955;-83
2023/08/04 11:53:03;;;;;;;;;;;;;;;30.59;33.74;101046.97;5021411;28;19996;-83
2023/08/04 11:55:28;;;;;;;;;;;;;;;30.66;34.63;101044.31;5022755;28;19921;-82
2023/08/04 11:57:54;;;;;;;;;;;;;;;30.83;34.78;101050.44;5009414;28;19922;-82
2023/08/04 12:00:32;;;;;;;;;;;;;;;31.13;34.59;101042.06;5020806;28;19921;-82
2023/08/04 12:02:59;;;;;;;;;;;;;;;31.29;32.68;101059.25;5025227;28;19956;-82
2023/08/04 12:05:31;;;;;;;;;;;;;;;31.08;33.69;101065.34;5022891;28;19921;-82
2023/08/04 12:07:59;;;;;;;;;;;;;;;30.78;33.74;101059.88;5024781;28;20311;-82
2023/08/04 12:10:25;;;;;;;;;;;;;;;30.69;34.52;101067.66;5014477;28;20011;-83
2023/08/04 12:12:51;;;;;;;;;;;;;;;30.76;34.50;101067.75;5022920;28;20004;-81
2023/08/04 12:15:16;;;;;;;;;;;;;;;30.78;33.71;101075.66;5023050;28;19925;-81
2023/08/04 12:17:42;;;;;;;;;;;;;;;30.84;33.28;101080.47;5022202;28;19964;-82
2023/08/04 12:20:09;;;;;;;;;;;;;;;30.88;33.71;101081.34;5002240;28;19917;-82
2023/08/04 12:22:35;;;;;;;;;;;;;;;31.10;33.56;101082.34;5024158;28;19921;-83
2023/08/04 12:25:02;;;;;;;;;;;;;;;31.27;33.65;101080.97;5026362;28;19924;-82
2023/08/04 12:27:28;;;;;;;;;;;;;;;31.38;32.97;101087.38;5021685;28;19917;-82
2023/08/04 12:29:54;;;;;;;;;;;;;;;31.43;32.72;101097.34;5009210;28;19923;-82